createdAt,value
2022-12-01T00:01:47.977Z,103051.44
2022-12-01T00:08:08.417Z,103088.91
2022-12-01T00:10:36.739Z,103080.19
2022-12-01T00:13:08.685Z,103079.34
2022-12-01T00:15:40.358Z,103084.56
2022-12-01T00:18:07.300Z,103095.09
2022-12-01T00:20:34.957Z,103075.81
2022-12-01T00:23:07.546Z,103052.34
2022-12-01T00:25:37.478Z,103091.59
2022-12-01T00:28:05.230Z,103096.00
2022-12-01T00:30:32.648Z,103083.81
2022-12-01T00:33:02.595Z,103082.81
2022-12-01T00:35:32.775Z,103084.56
2022-12-01T00:37:59.469Z,103091.59
2022-12-01T00:40:29.738Z,103095.97
2022-12-01T00:42:57.510Z,103065.34
2022-12-01T00:45:24.774Z,103071.44
2022-12-01T00:47:51.381Z,103060.19
2022-12-01T00:50:18.331Z,103101.25
2022-12-01T00:52:45.124Z,103081.94
2022-12-01T00:55:12.416Z,103082.75
2022-12-01T00:57:39.706Z,103063.53
2022-12-01T01:00:09.945Z,103074.06
2022-12-01T01:02:39.211Z,103090.59
2022-12-01T01:05:06.964Z,103085.34
2022-12-01T01:07:33.517Z,103094.09
2022-12-01T01:10:00.017Z,103087.06
2022-12-01T01:12:28.112Z,103086.22
2022-12-01T01:14:54.591Z,103082.75
2022-12-01T01:17:21.058Z,103095.84
2022-12-01T01:19:47.925Z,103097.69
2022-12-01T01:22:14.710Z,103101.19
2022-12-01T01:24:41.212Z,103098.56
2022-12-01T01:27:07.767Z,103102.94
2022-12-01T01:29:34.499Z,103098.53
2022-12-01T01:32:01.040Z,103104.72
2022-12-01T01:34:27.659Z,103113.53
2022-12-01T01:36:54.113Z,103119.72
2022-12-01T01:39:20.636Z,103113.59
2022-12-01T01:41:47.382Z,103121.41
2022-12-01T01:44:45.095Z,103117.03
2022-12-01T01:47:13.317Z,103120.50
2022-12-01T01:49:41.239Z,103110.97
2022-12-01T01:52:08.304Z,103120.59
2022-12-01T01:54:43.317Z,103113.53
2022-12-01T01:57:13.705Z,103114.38
2022-12-01T01:59:49.035Z,103115.25
2022-12-01T02:02:16.072Z,103123.13
2022-12-01T02:04:47.393Z,103119.56
2022-12-01T02:07:18.112Z,103114.38
2022-12-01T02:09:45.366Z,103122.25
2022-12-01T02:12:34.300Z,103099.44
2022-12-01T02:15:04.981Z,103115.16
2022-12-01T02:17:56.953Z,103102.03
2022-12-01T02:20:49.790Z,103110.75
2022-12-01T02:23:34.721Z,103111.66
2022-12-01T02:26:29.156Z,103106.44
2022-12-01T02:29:20.601Z,103105.56
2022-12-01T02:32:09.051Z,103107.28
2022-12-01T02:34:50.188Z,103104.69
2022-12-01T02:37:40.784Z,103104.75
2022-12-01T02:40:22.407Z,103110.84
2022-12-01T02:43:02.221Z,103117.03
2022-12-01T02:45:56.421Z,103111.72
2022-12-01T02:48:28.307Z,103108.19
2022-12-01T02:50:58.620Z,103107.34
2022-12-01T02:53:27.055Z,103099.44
2022-12-01T02:55:54.788Z,103101.22
2022-12-01T02:58:22.252Z,103102.13
2022-12-01T03:00:59.375Z,103104.69
2022-12-01T03:04:05.178Z,103107.34
2022-12-01T03:06:46.979Z,103109.13
2022-12-01T03:09:41.409Z,103108.22
2022-12-01T03:12:57.435Z,103102.13
2022-12-01T03:15:45.594Z,103105.63
2022-12-01T03:18:29.071Z,103102.06
2022-12-01T03:21:15.039Z,103110.84
2022-12-01T03:23:47.090Z,103090.69
2022-12-01T03:26:17.688Z,103106.38
2022-12-01T03:28:49.839Z,103099.44
2022-12-01T03:31:20.274Z,103114.38
2022-12-01T03:33:52.259Z,103102.16
2022-12-01T03:36:36.977Z,103115.28
2022-12-01T03:39:08.690Z,103109.16
2022-12-01T03:41:44.199Z,103106.50
2022-12-01T03:44:21.292Z,103111.72
2022-12-01T03:46:53.951Z,103104.81
2022-12-01T03:49:23.694Z,103113.56
2022-12-01T03:51:59.111Z,103108.31
2022-12-01T03:54:52.141Z,103114.50
2022-12-01T03:57:25.903Z,103107.47
2022-12-01T03:59:53.814Z,103106.53
2022-12-01T04:02:20.903Z,103093.38
2022-12-01T04:04:47.492Z,103101.22
2022-12-01T04:07:14.819Z,103099.50
2022-12-01T04:09:41.941Z,103090.84
2022-12-01T04:12:32.846Z,103093.41
2022-12-01T04:15:02.521Z,103097.88
2022-12-01T04:17:29.614Z,103098.72
2022-12-01T04:19:56.470Z,103100.53
2022-12-01T04:22:23.680Z,103109.28
2022-12-01T04:24:50.201Z,103100.59
2022-12-01T04:27:16.877Z,103099.69
2022-12-01T04:29:43.449Z,103094.56
2022-12-01T04:32:10.175Z,103099.91
2022-12-01T04:34:36.883Z,103108.72
2022-12-01T04:37:03.994Z,103124.47
2022-12-01T04:39:30.452Z,103118.38
2022-12-01T04:41:56.987Z,103121.03
2022-12-01T04:44:23.595Z,103121.94
2022-12-01T04:46:52.809Z,103119.25
2022-12-01T04:49:21.473Z,103109.72
2022-12-01T04:51:48.849Z,103123.69
2022-12-01T04:54:16.424Z,103123.72
2022-12-01T04:56:45.908Z,103114.09
2022-12-01T04:59:12.790Z,103128.09
2022-12-01T05:01:39.506Z,103120.25
2022-12-01T05:04:06.161Z,103122.91
2022-12-01T05:06:32.765Z,103130.81
2022-12-01T05:09:01.668Z,103129.09
2022-12-01T05:11:29.804Z,103134.34
2022-12-01T05:13:56.314Z,103134.38
2022-12-01T05:16:25.406Z,103139.59
2022-12-01T05:19:18.802Z,103141.31
2022-12-01T05:21:47.342Z,103136.94
2022-12-01T05:24:14.359Z,103131.69
2022-12-01T05:26:41.948Z,103134.34
2022-12-01T05:29:09.610Z,103132.59
2022-12-01T05:31:36.251Z,103136.97
2022-12-01T05:34:03.411Z,103130.81
2022-12-01T05:36:30.051Z,103138.63
2022-12-01T05:38:56.534Z,103137.66
2022-12-01T05:41:23.075Z,103136.75
2022-12-01T05:43:49.581Z,103133.22
2022-12-01T05:46:16.161Z,103134.09
2022-12-01T05:48:42.809Z,103127.06
2022-12-01T05:51:10.853Z,103131.47
2022-12-01T05:53:37.449Z,103127.09
2022-12-01T05:56:04.430Z,103120.94
2022-12-01T05:58:30.979Z,103118.38
2022-12-01T06:00:57.534Z,103119.25
2022-12-01T06:03:24.036Z,103120.06
2022-12-01T06:05:50.973Z,103127.09
2022-12-01T06:08:17.646Z,103128.84
2022-12-01T06:10:44.663Z,103128.78
2022-12-01T06:13:11.131Z,103129.69
2022-12-01T06:15:37.751Z,103127.94
2022-12-01T06:18:04.436Z,103134.94
2022-12-01T06:20:31.055Z,103134.00
2022-12-01T06:22:59.531Z,103144.44
2022-12-01T06:25:26.128Z,103135.75
2022-12-01T06:27:57.440Z,103145.31
2022-12-01T06:30:24.044Z,103144.53
2022-12-01T06:32:50.537Z,103138.41
2022-12-01T06:35:17.015Z,103139.25
2022-12-01T06:37:43.485Z,103146.16
2022-12-01T06:40:10.771Z,103139.13
2022-12-01T06:42:37.313Z,103145.31
2022-12-01T06:45:03.981Z,103147.09
2022-12-01T06:47:30.429Z,103154.06
2022-12-01T06:49:56.975Z,103151.44
2022-12-01T06:52:23.532Z,103160.19
2022-12-01T06:54:50.077Z,103168.91
2022-12-01T06:57:16.899Z,103173.28
2022-12-01T06:59:43.496Z,103163.66
2022-12-01T07:02:11.511Z,103172.44
2022-12-01T07:04:38.075Z,103175.91
2022-12-01T07:07:06.080Z,103168.00
2022-12-01T07:09:32.979Z,103168.94
2022-12-01T07:11:59.923Z,103179.38
2022-12-01T07:14:27.284Z,103177.63
2022-12-01T07:16:55.061Z,103180.31
2022-12-01T07:19:21.817Z,103174.19
2022-12-01T07:21:48.470Z,103173.34
2022-12-01T07:24:15.117Z,103181.25
2022-12-01T07:26:42.616Z,103177.72
2022-12-01T07:29:10.559Z,103181.13
2022-12-01T07:31:38.205Z,103178.53
2022-12-01T07:34:05.346Z,103185.59
2022-12-01T07:36:31.999Z,103176.00
2022-12-01T07:38:58.698Z,103189.94
2022-12-01T07:41:25.549Z,103183.84
2022-12-01T07:43:52.090Z,103193.44
2022-12-01T07:46:23.530Z,103193.44
2022-12-01T07:48:51.672Z,103194.31
2022-12-01T07:51:18.592Z,103196.94
2022-12-01T07:53:46.592Z,103208.31
2022-12-01T07:56:13.634Z,103202.22
2022-12-01T07:58:40.962Z,103209.19
2022-12-01T08:01:09.544Z,103205.66
2022-12-01T08:03:36.529Z,103210.03
2022-12-01T08:06:05.048Z,103212.66
2022-12-01T08:08:32.439Z,103211.75
2022-12-01T08:11:05.509Z,103210.88
2022-12-01T08:13:32.509Z,103228.41
2022-12-01T08:15:59.151Z,103217.91
2022-12-01T08:18:25.706Z,103215.28
2022-12-01T08:20:56.011Z,103210.00
2022-12-01T08:23:25.738Z,103218.75
2022-12-01T08:25:55.541Z,103220.53
2022-12-01T08:28:22.136Z,103222.28
2022-12-01T08:30:48.712Z,103211.69
2022-12-01T08:33:15.281Z,103210.84
2022-12-01T08:35:41.883Z,103220.50
2022-12-01T08:38:09.558Z,103221.38
2022-12-01T08:40:36.101Z,103211.78
2022-12-01T08:43:02.690Z,103212.63
2022-12-01T08:45:29.233Z,103217.94
2022-12-01T08:47:59.938Z,103221.38
2022-12-01T08:50:27.718Z,103218.78
2022-12-01T08:52:54.860Z,103218.84
2022-12-01T08:55:22.671Z,103222.28
2022-12-01T08:57:49.224Z,103217.91
2022-12-01T09:00:16.756Z,103230.19
2022-12-01T09:02:43.325Z,103216.19
2022-12-01T09:05:09.940Z,103215.28
2022-12-01T09:07:36.658Z,103214.38
2022-12-01T09:10:03.776Z,103216.16
2022-12-01T09:15:30.590Z,103209.16
2022-12-01T09:17:57.123Z,103215.25
2022-12-01T09:20:25.914Z,103210.84
2022-12-01T09:22:52.368Z,103218.75
2022-12-01T09:25:18.834Z,103218.78
2022-12-01T09:27:45.430Z,103213.50
2022-12-01T09:30:12.671Z,103210.00
2022-12-01T09:32:39.296Z,103218.75
2022-12-01T09:35:05.943Z,103205.59
2022-12-01T09:37:32.568Z,103224.00
2022-12-01T09:39:59.073Z,103213.53
2022-12-01T09:42:30.849Z,103220.53
2022-12-01T09:45:02.773Z,103217.91
2022-12-01T09:47:33.896Z,103217.88
2022-12-01T09:50:18.812Z,103223.13
2022-12-01T09:52:57.561Z,103214.38
2022-12-01T09:55:25.987Z,103214.41
2022-12-01T09:57:58.357Z,103223.13
2022-12-01T10:00:32.734Z,103218.69
2022-12-01T10:03:06.718Z,103209.06
2022-12-01T10:06:24.575Z,103214.28
2022-12-01T10:08:37.282Z,103215.22
2022-12-01T10:11:16.667Z,103210.84
2022-12-01T10:13:43.927Z,103209.91
2022-12-01T10:16:18.884Z,103209.97
2022-12-01T10:19:13.310Z,103208.19
2022-12-01T10:22:15.186Z,103204.69
2022-12-01T10:25:01.302Z,103207.22
2022-12-01T10:28:10.441Z,103206.34
2022-12-01T10:30:48.448Z,103194.06
2022-12-01T10:33:34.201Z,103208.16
2022-12-01T10:36:01.354Z,103193.25
2022-12-01T10:38:35.404Z,103194.94
2022-12-01T10:41:06.027Z,103191.47
2022-12-01T10:43:42.060Z,103195.81
2022-12-01T10:46:32.968Z,103202.78
2022-12-01T10:49:07.534Z,103199.34
2022-12-01T10:51:47.338Z,103195.00
2022-12-01T10:54:14.147Z,103196.72
2022-12-01T10:56:43.010Z,103193.19
2022-12-01T10:59:46.631Z,103194.00
2022-12-01T11:02:21.190Z,103183.47
2022-12-01T11:04:58.186Z,103182.69
2022-12-01T11:07:28.117Z,103183.56
2022-12-01T11:10:02.664Z,103181.75
2022-12-01T11:12:29.505Z,103175.66
2022-12-01T11:14:57.414Z,103179.03
2022-12-01T11:17:29.424Z,103179.91
2022-12-01T11:19:56.307Z,103170.31
2022-12-01T11:22:31.533Z,103176.44
2022-12-01T11:25:05.792Z,103177.28
2022-12-01T11:27:51.087Z,103172.94
2022-12-01T11:30:24.592Z,103165.91
2022-12-01T11:32:58.221Z,103173.84
2022-12-01T11:35:28.024Z,103163.22
2022-12-01T11:38:28.363Z,103173.72
2022-12-01T11:40:51.305Z,103174.63
2022-12-01T11:43:33.260Z,103164.13
2022-12-01T11:46:04.687Z,103164.13
2022-12-01T11:48:34.639Z,103158.00
2022-12-01T11:51:25.410Z,103159.63
2022-12-01T11:54:16.284Z,103151.81
2022-12-01T11:56:44.666Z,103151.78
2022-12-01T11:59:13.100Z,103157.88
2022-12-01T12:01:57.899Z,103153.50
2022-12-01T12:04:31.723Z,103146.53
2022-12-01T12:07:11.289Z,103155.25
2022-12-01T12:10:15.118Z,103152.63
2022-12-01T12:13:08.144Z,103143.00
2022-12-01T12:16:05.727Z,103148.28
2022-12-01T12:18:44.027Z,103151.72
2022-12-01T12:21:46.077Z,103149.09
2022-12-01T12:24:38.352Z,103149.94
2022-12-01T12:27:15.187Z,103142.91
2022-12-01T12:30:03.093Z,103137.69
2022-12-01T12:32:38.748Z,103128.03
2022-12-01T12:35:20.348Z,103134.13
2022-12-01T12:38:32.421Z,103126.31
2022-12-01T12:41:38.065Z,103134.09
2022-12-01T12:44:47.986Z,103127.25
2022-12-01T12:47:31.538Z,103132.31
2022-12-01T12:50:34.547Z,103126.25
2022-12-01T12:53:16.222Z,103128.88
2022-12-01T12:55:50.255Z,103126.25
2022-12-01T12:58:25.915Z,103129.78
2022-12-01T13:01:01.468Z,103125.28
2022-12-01T13:03:49.146Z,103123.50
2022-12-01T13:06:27.957Z,103118.31
2022-12-01T13:09:04.380Z,103113.09
2022-12-01T13:11:38.448Z,103120.88
2022-12-01T13:14:14.292Z,103124.44
2022-12-01T13:16:44.113Z,103123.53
2022-12-01T13:19:17.244Z,103117.44
2022-12-01T13:21:46.550Z,103117.41
2022-12-01T13:24:22.771Z,103118.25
2022-12-01T13:27:01.282Z,103115.66
2022-12-01T13:29:40.979Z,103114.75
2022-12-01T13:32:30.536Z,103117.47
2022-12-01T13:34:59.004Z,103109.66
2022-12-01T13:37:26.922Z,103114.81
2022-12-01T13:39:55.585Z,103120.09
2022-12-01T13:42:25.927Z,103120.09
2022-12-01T13:44:56.999Z,103119.31
2022-12-01T13:47:57.604Z,103107.94
2022-12-01T13:50:36.468Z,103111.34
2022-12-01T13:53:25.373Z,103106.94
2022-12-01T13:56:04.036Z,103110.53
2022-12-01T13:58:33.720Z,103101.72
2022-12-01T14:01:35.053Z,103099.16
2022-12-01T14:04:10.463Z,103108.78
2022-12-01T14:06:50.551Z,103098.28
2022-12-01T14:09:27.972Z,103086.03
2022-12-01T14:11:58.394Z,103095.72
2022-12-01T14:14:32.687Z,103093.94
2022-12-01T14:17:02.643Z,103094.81
2022-12-01T14:19:32.784Z,103091.38
2022-12-01T14:22:00.968Z,103094.88
2022-12-01T14:24:40.514Z,103090.50
2022-12-01T14:27:08.712Z,103081.78
2022-12-01T14:29:43.022Z,103091.34
2022-12-01T14:32:09.443Z,103094.84
2022-12-01T14:34:37.638Z,103090.47
2022-12-01T14:37:11.896Z,103089.66
2022-12-01T14:39:42.332Z,103088.72
2022-12-01T14:42:36.908Z,103090.47
2022-12-01T14:45:05.497Z,103087.00
2022-12-01T14:47:46.659Z,103102.00
2022-12-01T14:50:33.128Z,103091.56
2022-12-01T14:53:14.211Z,103091.47
2022-12-01T14:55:47.698Z,103085.41
2022-12-01T14:58:19.903Z,103083.66
2022-12-01T15:01:13.811Z,103090.69
2022-12-01T15:03:59.252Z,103091.56
2022-12-01T15:06:28.519Z,103089.81
2022-12-01T15:12:02.363Z,103082.78
2022-12-01T15:14:32.054Z,103091.56
2022-12-01T15:16:59.346Z,103087.16
2022-12-01T15:19:33.916Z,103082.81
2022-12-01T15:22:05.592Z,103076.75
2022-12-01T15:24:33.963Z,103088.97
2022-12-01T15:27:03.798Z,103081.16
2022-12-01T15:29:52.226Z,103079.41
2022-12-01T15:32:21.620Z,103082.91
2022-12-01T15:34:51.933Z,103082.84
2022-12-01T15:37:21.991Z,103086.38
2022-12-01T15:39:48.715Z,103091.63
2022-12-01T15:42:22.846Z,103092.44
2022-12-01T15:45:05.222Z,103088.06
2022-12-01T15:47:41.267Z,103088.94
2022-12-01T15:50:31.553Z,103087.19
2022-12-01T15:53:00.827Z,103087.16
2022-12-01T15:55:31.030Z,103094.22
2022-12-01T15:57:59.633Z,103092.44
2022-12-01T16:00:26.413Z,103098.63
2022-12-01T16:02:56.350Z,103087.25
2022-12-01T16:05:26.887Z,103100.41
2022-12-01T16:10:40.067Z,103094.28
2022-12-01T16:13:37.836Z,103096.84
2022-12-01T16:16:42.044Z,103101.22
2022-12-01T16:19:08.617Z,103099.63
2022-12-01T16:22:12.038Z,103100.50
2022-12-01T16:24:46.653Z,103105.78
2022-12-01T16:27:33.592Z,103103.09
2022-12-01T16:30:06.987Z,103093.47
2022-12-01T16:32:42.644Z,103103.06
2022-12-01T16:35:21.299Z,103101.38
2022-12-01T16:37:48.125Z,103096.97
2022-12-01T16:40:16.822Z,103089.94
2022-12-01T16:42:43.491Z,103088.16
2022-12-01T16:45:14.876Z,103095.22
2022-12-01T16:47:42.653Z,103093.41
2022-12-01T16:50:17.401Z,103092.53
2022-12-01T16:52:45.639Z,103078.59
2022-12-01T16:55:18.698Z,103089.03
2022-12-01T16:57:45.183Z,103096.94
2022-12-01T17:00:12.237Z,103086.47
2022-12-01T17:02:38.798Z,103089.97
2022-12-01T17:05:05.536Z,103089.09
2022-12-01T17:07:32.022Z,103080.22
2022-12-01T17:09:58.686Z,103083.81
2022-12-01T17:12:26.774Z,103082.97
2022-12-01T17:14:53.313Z,103086.47
2022-12-01T17:17:19.868Z,103088.25
2022-12-01T17:19:46.381Z,103084.81
2022-12-01T17:22:12.948Z,103090.00
2022-12-01T17:24:39.572Z,103082.94
2022-12-01T17:27:06.029Z,103097.84
2022-12-01T17:29:32.524Z,103085.56
2022-12-01T17:31:59.035Z,103090.81
2022-12-01T17:34:25.495Z,103088.13
2022-12-01T17:36:52.046Z,103081.16
2022-12-01T17:39:19.384Z,103069.88
2022-12-01T17:41:45.879Z,103081.25
2022-12-01T17:44:12.496Z,103079.41
2022-12-01T17:46:39.025Z,103086.53
2022-12-01T17:49:09.337Z,103082.16
2022-12-01T17:51:36.773Z,103093.47
2022-12-01T17:54:05.543Z,103084.75
2022-12-01T17:56:32.364Z,103084.75
2022-12-01T17:58:58.841Z,103083.78
2022-12-01T18:01:30.173Z,103084.66
2022-12-01T18:03:58.875Z,103089.09
2022-12-01T18:06:26.746Z,103081.28
2022-12-01T18:08:53.984Z,103076.97
2022-12-01T18:11:20.987Z,103080.41
2022-12-01T18:13:50.975Z,103081.28
2022-12-01T18:16:31.844Z,103083.97
2022-12-01T18:19:00.026Z,103074.47
2022-12-01T18:21:27.848Z,103077.19
2022-12-01T18:23:57.144Z,103092.88
2022-12-01T18:26:25.149Z,103081.47
2022-12-01T18:28:56.653Z,103090.28
2022-12-01T18:31:24.086Z,103090.31
2022-12-01T18:33:51.637Z,103086.88
2022-12-01T18:36:22.033Z,103086.91
2022-12-01T18:38:50.081Z,103086.03
2022-12-01T18:41:17.782Z,103085.13
2022-12-01T18:43:44.889Z,103087.75
2022-12-01T18:46:16.385Z,103092.13
2022-12-01T18:48:48.167Z,103090.44
2022-12-01T18:51:15.215Z,103086.06
2022-12-01T18:53:42.168Z,103084.31
2022-12-01T18:56:11.911Z,103094.81
2022-12-01T18:58:40.136Z,103082.63
2022-12-01T19:01:22.971Z,103097.41
2022-12-01T19:03:49.981Z,103086.94
2022-12-01T19:06:17.759Z,103100.03
2022-12-01T19:08:44.247Z,103093.97
2022-12-01T19:11:10.864Z,103096.59
2022-12-01T19:13:37.430Z,103086.13
2022-12-01T19:16:12.870Z,103086.19
2022-12-01T19:18:39.902Z,103084.44
2022-12-01T19:21:08.172Z,103086.19
2022-12-01T19:23:34.742Z,103087.97
2022-12-01T19:26:10.137Z,103082.72
2022-12-01T19:28:37.744Z,103090.59
2022-12-01T19:31:11.184Z,103090.56
2022-12-01T19:33:38.177Z,103090.63
2022-12-01T19:36:10.536Z,103092.41
2022-12-01T19:38:37.403Z,103087.16
2022-12-01T19:41:05.029Z,103076.63
2022-12-01T19:43:34.031Z,103082.66
2022-12-01T19:46:05.831Z,103088.81
2022-12-01T19:48:32.435Z,103078.31
2022-12-01T19:50:59.134Z,103094.13
2022-12-01T19:53:29.170Z,103082.72
2022-12-01T19:56:02.121Z,103082.75
2022-12-01T19:58:31.201Z,103080.97
2022-12-01T20:01:06.188Z,103083.59
2022-12-01T20:03:33.284Z,103076.56
2022-12-01T20:06:27.587Z,103086.19
2022-12-01T20:09:00.040Z,103081.78
2022-12-01T20:11:29.751Z,103075.63
2022-12-01T20:13:56.767Z,103079.09
2022-12-01T20:16:24.732Z,103085.22
2022-12-01T20:18:52.587Z,103088.72
2022-12-01T20:21:33.409Z,103086.16
2022-12-01T20:24:01.552Z,103087.06
2022-12-01T20:26:31.711Z,103085.34
2022-12-01T20:29:08.933Z,103094.97
2022-12-01T20:31:37.079Z,103096.75
2022-12-01T20:34:07.411Z,103106.34
2022-12-01T20:36:34.586Z,103094.94
2022-12-01T20:39:01.158Z,103098.41
2022-12-01T20:41:27.771Z,103080.91
2022-12-01T20:43:54.322Z,103086.19
2022-12-01T20:46:20.900Z,103089.69
2022-12-01T20:48:47.479Z,103093.19
2022-12-01T20:51:14.747Z,103094.03
2022-12-01T20:53:54.503Z,103082.66
2022-12-01T20:56:29.284Z,103081.75
2022-12-01T20:58:55.806Z,103078.28
2022-12-01T21:01:22.545Z,103087.03
2022-12-01T21:03:50.888Z,103088.78
2022-12-01T21:06:17.943Z,103077.41
2022-12-01T21:08:46.589Z,103081.81
2022-12-01T21:11:44.334Z,103077.41
2022-12-01T21:14:18.045Z,103064.28
2022-12-01T21:16:48.354Z,103063.38
2022-12-01T21:19:23.903Z,103071.28
2022-12-01T21:21:50.476Z,103072.13
2022-12-01T21:24:20.028Z,103080.06
2022-12-01T21:26:48.220Z,103065.22
2022-12-01T21:29:22.194Z,103067.81
2022-12-01T21:31:52.345Z,103062.63
2022-12-01T21:34:28.839Z,103060.84
2022-12-01T21:36:59.031Z,103064.34
2022-12-01T21:39:26.453Z,103052.94
2022-12-01T21:41:56.556Z,103055.66
2022-12-01T21:44:29.441Z,103051.25
2022-12-01T21:46:57.359Z,103050.34
2022-12-01T21:49:39.038Z,103046.81
2022-12-01T21:52:19.724Z,103045.09
2022-12-01T21:54:46.815Z,103053.81
2022-12-01T21:57:43.380Z,103052.97
2022-12-01T22:00:36.872Z,103045.06
2022-12-01T22:03:26.294Z,103044.25
2022-12-01T22:06:29.311Z,103042.47
2022-12-01T22:09:01.259Z,103051.25
2022-12-01T22:11:29.702Z,103043.38
2022-12-01T22:14:04.422Z,103050.41
2022-12-01T22:16:32.246Z,103050.41
2022-12-01T22:19:01.679Z,103051.25
2022-12-01T22:21:33.545Z,103042.47
2022-12-01T22:24:14.589Z,103045.09
2022-12-01T22:26:46.412Z,103034.59
2022-12-01T22:30:29.558Z,103041.63
2022-12-01T22:32:58.452Z,103038.16
2022-12-01T22:35:41.936Z,103040.78
2022-12-01T22:38:11.076Z,103035.56
2022-12-01T22:40:58.172Z,103040.78
2022-12-01T22:43:27.555Z,103041.63
2022-12-01T22:46:05.277Z,103033.81
2022-12-01T22:48:39.186Z,103036.41
2022-12-01T22:51:20.848Z,103030.34
2022-12-01T22:53:48.315Z,103033.84
2022-12-01T22:57:00.810Z,103034.72
2022-12-01T22:59:46.248Z,103028.63
2022-12-01T23:02:23.333Z,103029.53
2022-12-01T23:04:55.770Z,103033.00
2022-12-01T23:07:32.690Z,103042.66
2022-12-01T23:10:29.918Z,103036.53
2022-12-01T23:13:00.449Z,103039.16
2022-12-01T23:15:34.154Z,103031.25
2022-12-01T23:18:33.434Z,103029.53
2022-12-01T23:21:01.746Z,103030.41
2022-12-01T23:23:30.860Z,103009.44
2022-12-01T23:25:58.311Z,103025.19
2022-12-01T23:28:25.131Z,103022.50
2022-12-01T23:30:54.975Z,103016.41
2022-12-01T23:33:24.186Z,103024.25
2022-12-01T23:36:05.165Z,103017.31
2022-12-01T23:38:42.428Z,103015.53
2022-12-01T23:41:25.447Z,103015.59
2022-12-01T23:44:01.984Z,103018.19
2022-12-01T23:46:28.505Z,103017.34
2022-12-01T23:49:04.369Z,103018.22
2022-12-01T23:51:37.103Z,103021.72
2022-12-01T23:54:14.141Z,103002.53
2022-12-01T23:56:40.625Z,103008.56
2022-12-01T23:59:13.362Z,103006.81
